Time;durP1;ratioP1;P1;durP2;ratioP2;P2;SDS_P1;SDS_P2;PMS_P1;PMS_P2;Temp;Humidity;BMP_temperature;BMP_pressure;BME280_temperature;BME280_humidity;BME280_pressure;Samples;Min_cycle;Max_cycle;Signal;HPM_P1;HPM_P2
2023/01/25 00:01:05;;;;;;;7.87;7.07;;;;;;;;;;5007871;28;20204;-57
2023/01/25 00:03:33;;;;;;;8.37;7.47;;;;;;;;;;5011503;28;20203;-57
2023/01/25 00:06:01;;;;;;;8.67;7.70;;;;;;;;;;5011815;28;20196;-59
2023/01/25 00:08:28;;;;;;;8.50;7.43;;;;;;;;;;5006218;28;20361;-58
2023/01/25 00:10:55;;;;;;;7.30;6.60;;;;;;;;;;5007535;28;20232;-56
2023/01/25 00:13:22;;;;;;;7.67;6.87;;;;;;;;;;5002949;28;20224;-57
2023/01/25 00:15:49;;;;;;;9.37;7.47;;;;;;;;;;5012527;28;20204;-58
2023/01/25 00:18:16;;;;;;;7.97;7.10;;;;;;;;;;5015263;28;20302;-56
2023/01/25 00:20:45;;;;;;;9.07;7.90;;;;;;;;;;5012775;28;20216;-56
2023/01/25 00:23:12;;;;;;;7.93;7.13;;;;;;;;;;5013481;28;20200;-58
2023/01/25 00:25:39;;;;;;;9.90;8.00;;;;;;;;;;5009982;28;20478;-56
2023/01/25 00:28:06;;;;;;;8.63;7.73;;;;;;;;;;5014592;28;20193;-57
2023/01/25 00:30:33;;;;;;;8.67;7.77;;;;;;;;;;5011355;28;20219;-58
2023/01/25 00:33:03;;;;;;;8.87;7.60;;;;;;;;;;5014923;28;20419;-56
2023/01/25 00:35:31;;;;;;;8.80;7.90;;;;;;;;;;5009861;28;20207;-59
2023/01/25 00:38:02;;;;;;;9.30;7.90;;;;;;;;;;5013818;28;20262;-57
2023/01/25 00:40:29;;;;;;;9.97;8.90;;;;;;;;;;5010412;28;20293;-57
2023/01/25 00:42:56;;;;;;;8.47;7.57;;;;;;;;;;5016208;28;20208;-58
2023/01/25 00:45:23;;;;;;;10.93;8.90;;;;;;;;;;5019583;28;20204;-59
2023/01/25 00:47:54;;;;;;;9.43;8.43;;;;;;;;;;5010297;28;20285;-58
2023/01/25 00:50:21;;;;;;;10.13;8.80;;;;;;;;;;5014267;28;20208;-59
2023/01/25 00:52:48;;;;;;;10.00;8.47;;;;;;;;;;5019042;28;20208;-58
2023/01/25 00:55:17;;;;;;;10.03;8.60;;;;;;;;;;5014434;28;20232;-58
2023/01/25 00:57:44;;;;;;;11.60;9.30;;;;;;;;;;5019376;28;20295;-58
2023/01/25 01:00:12;;;;;;;10.10;8.90;;;;;;;;;;5015162;28;20200;-58
2023/01/25 01:02:39;;;;;;;10.30;9.20;;;;;;;;;;5016765;28;20211;-58
2023/01/25 01:05:07;;;;;;;9.97;8.93;;;;;;;;;;5012530;28;20192;-58
2023/01/25 01:07:34;;;;;;;11.97;9.20;;;;;;;;;;5016482;28;20204;-59
2023/01/25 01:10:01;;;;;;;9.97;8.97;;;;;;;;;;5010667;28;20231;-58
2023/01/25 01:12:29;;;;;;;11.53;9.60;;;;;;;;;;5015201;28;20290;-57
2023/01/25 01:14:56;;;;;;;11.30;9.50;;;;;;;;;;5013789;28;20220;-56
2023/01/25 01:17:24;;;;;;;11.90;9.50;;;;;;;;;;5015106;28;20199;-58
2023/01/25 01:19:51;;;;;;;10.83;9.60;;;;;;;;;;5016048;28;20291;-58
2023/01/25 01:22:18;;;;;;;11.97;10.27;;;;;;;;;;5009426;28;20209;-58
2023/01/25 01:24:45;;;;;;;11.20;10.00;;;;;;;;;;5014952;28;20206;-58
2023/01/25 01:27:12;;;;;;;12.10;10.73;;;;;;;;;;5012710;28;20205;-56
2023/01/25 01:29:41;;;;;;;11.77;10.13;;;;;;;;;;5010600;28;20204;-57
2023/01/25 01:32:08;;;;;;;12.77;11.13;;;;;;;;;;5017619;28;20200;-59
2023/01/25 01:34:35;;;;;;;11.87;9.27;;;;;;;;;;5014818;28;20224;-56
2023/01/25 01:37:02;;;;;;;12.17;10.73;;;;;;;;;;5010541;28;20200;-59
2023/01/25 01:39:29;;;;;;;12.60;10.13;;;;;;;;;;5009656;28;20223;-57
2023/01/25 01:41:56;;;;;;;13.37;10.70;;;;;;;;;;5009170;28;20209;-59
2023/01/25 01:44:38;;;;;;;12.27;10.53;;;;;;;;;;5016235;28;20196;-58
2023/01/25 01:47:09;;;;;;;11.53;10.30;;;;;;;;;;5006772;28;20196;-57
2023/01/25 01:49:36;;;;;;;12.90;10.90;;;;;;;;;;5009796;28;20204;-57
2023/01/25 01:52:08;;;;;;;11.20;9.97;;;;;;;;;;5013757;28;20215;-57
2023/01/25 01:54:36;;;;;;;14.50;11.47;;;;;;;;;;5017620;28;20223;-59
2023/01/25 01:57:06;;;;;;;11.73;9.47;;;;;;;;;;5012343;28;20193;-53
2023/01/25 01:59:34;;;;;;;13.90;10.23;;;;;;;;;;5011971;28;20192;-58
2023/01/25 02:02:01;;;;;;;13.70;11.00;;;;;;;;;;5010208;28;20211;-59
2023/01/25 02:04:30;;;;;;;13.53;11.23;;;;;;;;;;5012974;28;20196;-58
2023/01/25 02:07:00;;;;;;;12.63;10.90;;;;;;;;;;5005364;28;20199;-59
2023/01/25 02:09:30;;;;;;;13.40;10.90;;;;;;;;;;5009060;28;20378;-56
2023/01/25 02:11:57;;;;;;;13.43;11.10;;;;;;;;;;5011825;28;20201;-57
2023/01/25 02:14:24;;;;;;;13.20;11.03;;;;;;;;;;5013051;28;20220;-58
2023/01/25 02:16:51;;;;;;;14.37;11.40;;;;;;;;;;5015653;28;20200;-59
2023/01/25 02:19:24;;;;;;;14.20;11.43;;;;;;;;;;5012647;28;20264;-57
2023/01/25 02:21:53;;;;;;;13.57;11.20;;;;;;;;;;5010022;28;20208;-58
2023/01/25 02:24:23;;;;;;;13.80;11.00;;;;;;;;;;5008328;28;20209;-58
2023/01/25 02:26:52;;;;;;;15.50;12.60;;;;;;;;;;5012611;28;20204;-58
2023/01/25 02:29:22;;;;;;;15.97;11.57;;;;;;;;;;5015967;28;20201;-56
2023/01/25 02:31:51;;;;;;;12.80;11.10;;;;;;;;;;5010144;28;20192;-59
2023/01/25 02:34:18;;;;;;;15.27;11.70;;;;;;;;;;5012150;28;20222;-55
2023/01/25 02:36:45;;;;;;;13.77;11.13;;;;;;;;;;5014956;28;20212;-59
2023/01/25 02:39:14;;;;;;;13.50;11.40;;;;;;;;;;5014979;28;20211;-59
2023/01/25 02:41:43;;;;;;;15.00;12.17;;;;;;;;;;5013591;28;20215;-59
2023/01/25 02:44:13;;;;;;;12.67;10.80;;;;;;;;;;5016180;28;20196;-58
2023/01/25 02:46:41;;;;;;;14.27;11.63;;;;;;;;;;5011662;28;20388;-56
2023/01/25 02:49:09;;;;;;;17.03;12.63;;;;;;;;;;5015249;28;20200;-58
2023/01/25 02:51:37;;;;;;;15.20;11.57;;;;;;;;;;5006157;28;20216;-57
2023/01/25 02:54:05;;;;;;;15.97;11.33;;;;;;;;;;5008812;28;20312;-58
2023/01/25 02:56:33;;;;;;;14.13;11.23;;;;;;;;;;5007635;28;20240;-58
2023/01/25 02:59:04;;;;;;;14.63;12.33;;;;;;;;;;5014323;28;20200;-58
2023/01/25 03:01:32;;;;;;;14.60;12.30;;;;;;;;;;5016059;28;20227;-59
2023/01/25 03:03:59;;;;;;;14.93;11.57;;;;;;;;;;5013080;28;20208;-59
2023/01/25 03:06:27;;;;;;;12.87;10.50;;;;;;;;;;5009151;28;20208;-55
2023/01/25 03:08:54;;;;;;;14.23;11.73;;;;;;;;;;5017197;28;20197;-58
2023/01/25 03:11:21;;;;;;;13.37;10.67;;;;;;;;;;5011274;28;20204;-59
2023/01/25 03:13:48;;;;;;;13.93;11.10;;;;;;;;;;5009819;28;20204;-57
2023/01/25 03:16:15;;;;;;;15.60;12.30;;;;;;;;;;5009682;28;20208;-58
2023/01/25 03:18:44;;;;;;;12.93;11.07;;;;;;;;;;5010867;28;20200;-58
2023/01/25 03:21:12;;;;;;;13.63;10.87;;;;;;;;;;5014959;28;20196;-57
2023/01/25 03:23:39;;;;;;;14.10;11.43;;;;;;;;;;5009727;28;20214;-58
2023/01/25 03:26:08;;;;;;;13.73;11.13;;;;;;;;;;5009193;28;20196;-58
2023/01/25 03:28:35;;;;;;;17.90;13.20;;;;;;;;;;5004645;28;20512;-57
2023/01/25 03:31:02;;;;;;;14.50;11.73;;;;;;;;;;5004796;28;20208;-59
2023/01/25 03:33:29;;;;;;;15.97;12.57;;;;;;;;;;5003246;28;20204;-58
2023/01/25 03:35:58;;;;;;;13.30;10.40;;;;;;;;;;5011703;28;20239;-59
2023/01/25 03:38:25;;;;;;;13.93;11.57;;;;;;;;;;5009458;28;20203;-59
2023/01/25 03:40:53;;;;;;;15.93;11.97;;;;;;;;;;5006573;28;20212;-57
2023/01/25 03:43:20;;;;;;;16.27;12.17;;;;;;;;;;5006942;28;20205;-58
2023/01/25 03:45:51;;;;;;;15.30;12.13;;;;;;;;;;5009883;28;20203;-59
2023/01/25 03:48:18;;;;;;;17.73;13.33;;;;;;;;;;5009481;28;20208;-58
2023/01/25 03:50:49;;;;;;;15.63;12.77;;;;;;;;;;5010650;28;20207;-58
2023/01/25 03:53:26;;;;;;;14.47;12.17;;;;;;;;;;5011876;28;20208;-59
2023/01/25 03:55:53;;;;;;;14.80;11.77;;;;;;;;;;5004720;28;20502;-60
2023/01/25 03:58:20;;;;;;;15.80;12.03;;;;;;;;;;5012708;28;20207;-55
2023/01/25 04:00:47;;;;;;;16.10;12.20;;;;;;;;;;5010728;28;20426;-59
2023/01/25 04:03:16;;;;;;;16.93;11.97;;;;;;;;;;5008358;28;20201;-58
2023/01/25 04:05:43;;;;;;;16.83;12.40;;;;;;;;;;5009204;28;20210;-59
2023/01/25 04:08:10;;;;;;;15.57;12.17;;;;;;;;;;5003055;28;20263;-58
2023/01/25 04:10:39;;;;;;;16.20;12.70;;;;;;;;;;5011660;28;20243;-58
2023/01/25 04:13:06;;;;;;;15.40;11.63;;;;;;;;;;5013729;28;20466;-57
2023/01/25 04:15:33;;;;;;;17.27;12.10;;;;;;;;;;5003388;28;20224;-55
2023/01/25 04:18:00;;;;;;;13.83;11.23;;;;;;;;;;5012744;28;20416;-58
2023/01/25 04:20:27;;;;;;;14.43;10.97;;;;;;;;;;5013991;28;20204;-56
2023/01/25 04:22:54;;;;;;;14.77;11.27;;;;;;;;;;5012944;28;20208;-57
2023/01/25 04:25:22;;;;;;;16.20;10.80;;;;;;;;;;5009772;28;20219;-58
2023/01/25 04:27:50;;;;;;;16.00;12.33;;;;;;;;;;5011757;28;20212;-56
2023/01/25 04:30:17;;;;;;;14.37;11.17;;;;;;;;;;5010977;28;20234;-55
2023/01/25 04:32:45;;;;;;;15.70;12.13;;;;;;;;;;5010683;28;20197;-56
2023/01/25 04:35:12;;;;;;;16.23;12.60;;;;;;;;;;5012158;28;20231;-54
2023/01/25 04:37:39;;;;;;;16.23;11.87;;;;;;;;;;5014014;28;20196;-59
2023/01/25 04:40:07;;;;;;;14.27;11.80;;;;;;;;;;5007528;28;20216;-58
2023/01/25 04:42:34;;;;;;;15.07;11.40;;;;;;;;;;5011201;28;20215;-56
2023/01/25 04:45:03;;;;;;;15.53;12.00;;;;;;;;;;5009988;28;20683;-53
2023/01/25 04:47:30;;;;;;;14.70;11.73;;;;;;;;;;5015729;28;20200;-58
2023/01/25 04:49:57;;;;;;;16.97;12.27;;;;;;;;;;5013098;28;20216;-58
2023/01/25 04:52:24;;;;;;;15.73;12.13;;;;;;;;;;5012886;28;20204;-57
2023/01/25 04:54:51;;;;;;;13.67;11.40;;;;;;;;;;5008912;28;20224;-57
2023/01/25 04:57:18;;;;;;;16.90;12.13;;;;;;;;;;5014517;28;20235;-56
2023/01/25 04:59:45;;;;;;;12.90;10.77;;;;;;;;;;5008412;28;20200;-57
2023/01/25 05:02:14;;;;;;;15.07;11.47;;;;;;;;;;5012000;28;20231;-56
2023/01/25 05:04:41;;;;;;;15.83;12.23;;;;;;;;;;5012597;28;20228;-55
2023/01/25 05:07:08;;;;;;;13.83;11.20;;;;;;;;;;5012301;28;20211;-57
2023/01/25 05:09:35;;;;;;;15.90;12.57;;;;;;;;;;5013166;28;20232;-59
2023/01/25 05:12:04;;;;;;;16.60;12.50;;;;;;;;;;5008632;28;20492;-58
2023/01/25 05:14:31;;;;;;;16.23;12.57;;;;;;;;;;5005430;28;20207;-57
2023/01/25 05:16:58;;;;;;;14.30;11.67;;;;;;;;;;5008920;28;20211;-59
2023/01/25 05:19:27;;;;;;;15.40;11.33;;;;;;;;;;5008348;28;20208;-55
2023/01/25 05:22:00;;;;;;;16.60;11.93;;;;;;;;;;5003817;28;20208;-57
2023/01/25 05:24:27;;;;;;;14.10;11.30;;;;;;;;;;5004530;28;20298;-58
2023/01/25 05:27:00;;;;;;;17.87;11.90;;;;;;;;;;5003325;28;20196;-59
2023/01/25 05:29:27;;;;;;;15.53;11.77;;;;;;;;;;5005618;28;20196;-58
2023/01/25 05:31:54;;;;;;;15.87;12.53;;;;;;;;;;5000472;28;20291;-56
2023/01/25 05:34:21;;;;;;;16.37;12.83;;;;;;;;;;5000810;28;20255;-56
2023/01/25 05:36:50;;;;;;;15.47;11.70;;;;;;;;;;5000099;28;20220;-58
2023/01/25 05:39:17;;;;;;;15.57;12.27;;;;;;;;;;5002047;28;20212;-58
2023/01/25 05:41:44;;;;;;;16.37;11.87;;;;;;;;;;5004119;28;20216;-58
2023/01/25 05:44:11;;;;;;;16.17;12.13;;;;;;;;;;5016584;28;20207;-57
2023/01/25 05:46:39;;;;;;;16.53;12.43;;;;;;;;;;5007100;28;20416;-58
2023/01/25 05:49:06;;;;;;;15.87;12.13;;;;;;;;;;5014778;28;20208;-58
2023/01/25 05:51:34;;;;;;;16.30;13.03;;;;;;;;;;5008864;28;20214;-58
2023/01/25 05:54:03;;;;;;;14.67;11.50;;;;;;;;;;5010031;28;20235;-58
2023/01/25 05:56:30;;;;;;;18.37;13.00;;;;;;;;;;5005560;28;20214;-57
2023/01/25 05:58:58;;;;;;;16.47;12.07;;;;;;;;;;5007264;28;20208;-58
2023/01/25 06:01:26;;;;;;;15.53;12.33;;;;;;;;;;5008836;28;20483;-59
2023/01/25 06:03:53;;;;;;;19.90;13.27;;;;;;;;;;5003380;28;20471;-58
2023/01/25 06:06:20;;;;;;;17.23;12.40;;;;;;;;;;5002097;28;20227;-57
2023/01/25 06:08:48;;;;;;;15.73;12.33;;;;;;;;;;5008571;28;20200;-59
2023/01/25 06:11:17;;;;;;;16.50;12.73;;;;;;;;;;5007428;28;20403;-59
2023/01/25 06:13:45;;;;;;;16.13;12.53;;;;;;;;;;5010852;28;20212;-54
2023/01/25 06:16:12;;;;;;;17.20;12.40;;;;;;;;;;5011004;28;20239;-58
2023/01/25 06:18:39;;;;;;;17.07;13.90;;;;;;;;;;5008472;28;20208;-54
2023/01/25 06:21:07;;;;;;;19.97;13.27;;;;;;;;;;5005979;28;20205;-56
2023/01/25 06:23:34;;;;;;;18.43;13.07;;;;;;;;;;5001575;28;20235;-59
2023/01/25 06:26:01;;;;;;;15.90;11.97;;;;;;;;;;5011711;28;20192;-56
2023/01/25 06:28:31;;;;;;;17.47;12.90;;;;;;;;;;5003566;28;20212;-58
2023/01/25 06:31:03;;;;;;;17.23;12.83;;;;;;;;;;5010403;28;20208;-57
2023/01/25 06:33:31;;;;;;;15.53;11.63;;;;;;;;;;5005935;28;20208;-58
2023/01/25 06:36:00;;;;;;;17.90;13.30;;;;;;;;;;5011314;28;20227;-57
2023/01/25 06:38:27;;;;;;;16.90;12.57;;;;;;;;;;5006579;28;20205;-57
2023/01/25 06:40:54;;;;;;;18.10;13.10;;;;;;;;;;5007051;28;20203;-55
2023/01/25 06:43:21;;;;;;;19.47;13.97;;;;;;;;;;5012267;28;20200;-56
2023/01/25 06:45:49;;;;;;;18.97;14.23;;;;;;;;;;5012611;28;20495;-57
2023/01/25 06:48:17;;;;;;;17.87;12.90;;;;;;;;;;5009903;28;20196;-57
2023/01/25 06:50:44;;;;;;;15.83;12.17;;;;;;;;;;5017972;28;20212;-58
2023/01/25 06:53:11;;;;;;;17.93;13.13;;;;;;;;;;5012703;28;20209;-59
2023/01/25 06:55:38;;;;;;;18.60;13.20;;;;;;;;;;5017878;28;20262;-56
2023/01/25 06:58:05;;;;;;;18.83;13.30;;;;;;;;;;5011857;28;20438;-56
2023/01/25 07:00:32;;;;;;;18.07;13.37;;;;;;;;;;5014805;28;20207;-59
2023/01/25 07:03:01;;;;;;;18.50;13.37;;;;;;;;;;5017456;28;20474;-58
2023/01/25 07:05:28;;;;;;;17.70;13.63;;;;;;;;;;5012963;28;20208;-57
2023/01/25 07:07:55;;;;;;;18.27;13.63;;;;;;;;;;5012927;28;20215;-59
2023/01/25 07:10:22;;;;;;;19.90;13.50;;;;;;;;;;5015324;28;20408;-57
2023/01/25 07:12:49;;;;;;;20.10;13.40;;;;;;;;;;5014176;28;20204;-56
2023/01/25 07:15:16;;;;;;;20.37;14.20;;;;;;;;;;5014258;28;20215;-55
2023/01/25 07:17:43;;;;;;;18.70;12.53;;;;;;;;;;5015883;28;20208;-57
2023/01/25 07:20:13;;;;;;;15.90;12.73;;;;;;;;;;5011978;28;20213;-56
2023/01/25 07:22:40;;;;;;;18.53;13.83;;;;;;;;;;5012405;28;20227;-59
2023/01/25 07:25:07;;;;;;;18.17;11.90;;;;;;;;;;5013409;28;20212;-56
2023/01/25 07:27:34;;;;;;;15.73;12.73;;;;;;;;;;5019377;28;20212;-59
2023/01/25 07:30:02;;;;;;;18.00;10.60;;;;;;;;;;5007238;28;20196;-58
2023/01/25 07:32:29;;;;;;;14.07;11.23;;;;;;;;;;5015501;28;20246;-56
2023/01/25 07:34:56;;;;;;;13.07;10.60;;;;;;;;;;5011359;28;20215;-59
2023/01/25 07:37:26;;;;;;;15.20;11.10;;;;;;;;;;5011869;28;20274;-57
2023/01/25 07:39:56;;;;;;;17.03;12.57;;;;;;;;;;5012091;28;20208;-55
2023/01/25 07:42:25;;;;;;;16.57;12.93;;;;;;;;;;5012221;28;20212;-59
2023/01/25 07:44:52;;;;;;;18.17;12.47;;;;;;;;;;5017246;28;20208;-58
2023/01/25 07:47:19;;;;;;;16.63;11.97;;;;;;;;;;5016274;28;20196;-57
2023/01/25 07:49:46;;;;;;;19.30;14.37;;;;;;;;;;5019878;28;20204;-58
2023/01/25 07:52:13;;;;;;;19.60;14.00;;;;;;;;;;5017597;28;20209;-58
2023/01/25 07:54:41;;;;;;;18.57;13.00;;;;;;;;;;5017469;28;20204;-58
2023/01/25 07:57:09;;;;;;;20.43;13.80;;;;;;;;;;5019397;28;20230;-58
2023/01/25 07:59:36;;;;;;;19.07;13.50;;;;;;;;;;5025553;28;20232;-57
2023/01/25 08:02:03;;;;;;;17.27;12.00;;;;;;;;;;5013674;28;20204;-59
2023/01/25 08:04:30;;;;;;;16.23;12.37;;;;;;;;;;5018118;28;20200;-58
2023/01/25 08:06:57;;;;;;;17.27;12.13;;;;;;;;;;5012351;28;20200;-58
2023/01/25 08:09:24;;;;;;;16.77;12.07;;;;;;;;;;5018791;28;20235;-59
2023/01/25 08:11:53;;;;;;;18.77;13.10;;;;;;;;;;5015374;28;20209;-58
2023/01/25 08:14:20;;;;;;;20.80;13.77;;;;;;;;;;5010927;28;20204;-58
2023/01/25 08:16:47;;;;;;;19.13;12.47;;;;;;;;;;5018889;28;20228;-57
2023/01/25 08:19:14;;;;;;;28.10;13.77;;;;;;;;;;5010657;28;20197;-53
2023/01/25 08:21:42;;;;;;;21.77;14.33;;;;;;;;;;5015987;28;20228;-57
2023/01/25 08:24:09;;;;;;;65.73;18.33;;;;;;;;;;5016107;28;20205;-58
2023/01/25 08:26:36;;;;;;;21.53;14.67;;;;;;;;;;5019600;28;20200;-58
2023/01/25 08:29:05;;;;;;;21.20;15.53;;;;;;;;;;5017331;28;20196;-58
2023/01/25 08:31:33;;;;;;;20.13;13.97;;;;;;;;;;5011412;28;20217;-55
2023/01/25 08:34:01;;;;;;;29.27;15.00;;;;;;;;;;5008203;28;20196;-58
2023/01/25 08:36:28;;;;;;;18.20;13.27;;;;;;;;;;5011999;28;20232;-58
2023/01/25 08:38:57;;;;;;;17.50;12.37;;;;;;;;;;5018424;28;20437;-58
2023/01/25 08:41:24;;;;;;;17.77;12.60;;;;;;;;;;5018565;28;20204;-58
2023/01/25 08:43:52;;;;;;;17.73;12.70;;;;;;;;;;5008873;28;20197;-57
2023/01/25 08:46:21;;;;;;;18.57;12.67;;;;;;;;;;5011956;28;20208;-59
2023/01/25 08:48:48;;;;;;;18.50;12.43;;;;;;;;;;5014377;28;20196;-57
2023/01/25 08:51:17;;;;;;;17.00;11.23;;;;;;;;;;5012906;28;20429;-57
2023/01/25 08:53:44;;;;;;;14.90;10.93;;;;;;;;;;5016593;28;20215;-59
2023/01/25 08:56:12;;;;;;;17.50;12.13;;;;;;;;;;5012863;28;20224;-56
2023/01/25 08:58:41;;;;;;;18.30;12.20;;;;;;;;;;5009459;28;20219;-54
2023/01/25 09:01:09;;;;;;;16.27;12.30;;;;;;;;;;5009538;28;20208;-58
2023/01/25 09:03:38;;;;;;;18.93;11.77;;;;;;;;;;5007951;28;20235;-56
2023/01/25 09:06:06;;;;;;;15.43;11.60;;;;;;;;;;5008844;28;20200;-57
2023/01/25 09:08:33;;;;;;;14.83;11.10;;;;;;;;;;5015444;28;20211;-59
2023/01/25 09:11:02;;;;;;;21.17;12.93;;;;;;;;;;5008801;28;20235;-54
2023/01/25 09:13:29;;;;;;;22.23;10.87;;;;;;;;;;5014442;28;20200;-57
2023/01/25 09:15:59;;;;;;;15.67;11.67;;;;;;;;;;5011284;28;20216;-57
2023/01/25 09:18:27;;;;;;;15.63;10.93;;;;;;;;;;5008497;28;20204;-57
2023/01/25 09:20:55;;;;;;;17.13;10.57;;;;;;;;;;5013082;28;20209;-56
2023/01/25 09:23:22;;;;;;;14.40;11.27;;;;;;;;;;5008259;28;20204;-57
2023/01/25 09:25:50;;;;;;;17.73;11.57;;;;;;;;;;5016489;28;20204;-58
2023/01/25 09:28:17;;;;;;;16.63;12.17;;;;;;;;;;5017276;28;20208;-55
2023/01/25 09:30:44;;;;;;;15.67;11.33;;;;;;;;;;5015153;28;20212;-59
2023/01/25 09:33:15;;;;;;;22.93;10.20;;;;;;;;;;5010317;28;20211;-58
2023/01/25 09:35:47;;;;;;;15.13;10.83;;;;;;;;;;5017515;28;20366;-56
2023/01/25 09:38:16;;;;;;;14.47;9.83;;;;;;;;;;5001513;28;20208;-58
2023/01/25 09:40:46;;;;;;;16.93;11.23;;;;;;;;;;5017520;28;20214;-57
2023/01/25 09:43:17;;;;;;;15.07;9.87;;;;;;;;;;5009085;28;20207;-57
2023/01/25 09:45:44;;;;;;;14.63;11.10;;;;;;;;;;5010186;28;20488;-56
2023/01/25 09:48:18;;;;;;;16.30;11.60;;;;;;;;;;5009944;28;20201;-56
2023/01/25 09:50:59;;;;;;;11.70;8.83;;;;;;;;;;5015059;28;20215;-57
2023/01/25 09:53:30;;;;;;;15.53;9.07;;;;;;;;;;5009805;28;20665;-57
2023/01/25 09:55:59;;;;;;;10.67;8.50;;;;;;;;;;5013026;28;20345;-57
2023/01/25 09:58:32;;;;;;;9.50;7.93;;;;;;;;;;5009997;28;20196;-56
2023/01/25 10:01:05;;;;;;;11.70;9.13;;;;;;;;;;5006965;28;20213;-56
2023/01/25 10:03:39;;;;;;;13.57;9.57;;;;;;;;;;5012032;28;20212;-55
2023/01/25 10:06:10;;;;;;;14.53;10.40;;;;;;;;;;5013327;28;20205;-55
2023/01/25 10:08:43;;;;;;;17.33;11.40;;;;;;;;;;5013359;28;20226;-53
2023/01/25 10:11:14;;;;;;;16.60;10.70;;;;;;;;;;5017432;28;20235;-58
2023/01/25 10:13:41;;;;;;;14.23;10.57;;;;;;;;;;5011011;28;20207;-54
2023/01/25 10:16:13;;;;;;;14.23;10.67;;;;;;;;;;5007003;28;20212;-54
2023/01/25 10:18:49;;;;;;;13.97;10.77;;;;;;;;;;5010567;28;20220;-57
2023/01/25 10:21:19;;;;;;;22.03;12.60;;;;;;;;;;5011814;28;20215;-59
2023/01/25 10:23:55;;;;;;;18.30;10.33;;;;;;;;;;5014500;28;20212;-56
2023/01/25 10:26:25;;;;;;;16.17;10.13;;;;;;;;;;5013924;28;20520;-58
2023/01/25 10:28:56;;;;;;;15.17;10.60;;;;;;;;;;5009402;28;20284;-57
2023/01/25 10:31:29;;;;;;;12.93;10.00;;;;;;;;;;5019901;28;20216;-58
2023/01/25 10:33:58;;;;;;;19.40;10.70;;;;;;;;;;5016974;28;20217;-59
2023/01/25 10:36:28;;;;;;;14.67;11.33;;;;;;;;;;5014605;28;20207;-58
2023/01/25 10:38:59;;;;;;;16.97;11.20;;;;;;;;;;5011012;28;20212;-58
2023/01/25 10:41:31;;;;;;;16.80;11.93;;;;;;;;;;5011924;28;20213;-56
2023/01/25 10:46:40;;;;;;;14.10;10.10;;;;;;;;;;5006915;28;20228;-57
2023/01/25 10:49:18;;;;;;;17.73;9.77;;;;;;;;;;5016297;28;20219;-57
2023/01/25 10:51:45;;;;;;;12.63;9.73;;;;;;;;;;5008288;28;20208;-58
2023/01/25 10:54:15;;;;;;;19.40;12.30;;;;;;;;;;5006128;28;20211;-57
2023/01/25 10:56:44;;;;;;;15.43;10.50;;;;;;;;;;5013289;28;20345;-58
2023/01/25 10:59:16;;;;;;;16.30;10.10;;;;;;;;;;5011790;28;20208;-54
2023/01/25 11:01:44;;;;;;;22.33;14.23;;;;;;;;;;5012874;28;20219;-57
2023/01/25 11:04:25;;;;;;;17.80;13.17;;;;;;;;;;5012590;28;20208;-56
2023/01/25 11:06:52;;;;;;;13.53;9.50;;;;;;;;;;5009224;28;20206;-58
2023/01/25 11:09:38;;;;;;;15.10;10.90;;;;;;;;;;5009219;28;20224;-58
2023/01/25 11:12:07;;;;;;;14.73;10.60;;;;;;;;;;4999418;28;20204;-58
2023/01/25 11:14:34;;;;;;;13.17;10.00;;;;;;;;;;5006361;28;20204;-55
2023/01/25 11:17:02;;;;;;;13.83;10.23;;;;;;;;;;5013797;28;20360;-58
2023/01/25 11:19:32;;;;;;;12.07;9.17;;;;;;;;;;5011375;28;20200;-56
2023/01/25 11:22:01;;;;;;;21.60;9.33;;;;;;;;;;5007327;28;20352;-57
2023/01/25 11:24:28;;;;;;;10.47;8.17;;;;;;;;;;5002633;28;20200;-56
2023/01/25 11:27:18;;;;;;;10.77;8.40;;;;;;;;;;5004818;28;20210;-58
2023/01/25 11:29:46;;;;;;;9.93;7.67;;;;;;;;;;5011424;28;20204;-56
2023/01/25 11:32:23;;;;;;;12.53;7.80;;;;;;;;;;5018395;28;20298;-58
2023/01/25 11:34:51;;;;;;;28.43;9.13;;;;;;;;;;5012580;28;20202;-54
2023/01/25 11:37:31;;;;;;;15.13;8.70;;;;;;;;;;5007673;28;20319;-56
2023/01/25 11:40:02;;;;;;;14.73;9.00;;;;;;;;;;5011857;28;20210;-58
2023/01/25 11:42:37;;;;;;;9.47;7.80;;;;;;;;;;5006781;28;20224;-58
2023/01/25 11:45:36;;;;;;;12.03;8.07;;;;;;;;;;5006941;28;20189;-56
2023/01/25 11:48:16;;;;;;;10.27;7.77;;;;;;;;;;4973132;28;20427;-56
2023/01/25 11:50:47;;;;;;;15.17;10.87;;;;;;;;;;5000578;28;20235;-58
2023/01/25 11:55:53;;;;;;;12.70;9.27;;;;;;;;;;5123293;23;20238;-60
2023/01/25 11:58:31;;;;;;;12.33;8.97;;;;;;;;;;5009130;28;20220;-60
2023/01/25 12:01:06;;;;;;;10.03;7.80;;;;;;;;;;5008999;28;20200;-60
2023/01/25 12:03:50;;;;;;;11.37;8.23;;;;;;;;;;5011976;28;20201;-60
2023/01/25 12:06:21;;;;;;;10.87;8.67;;;;;;;;;;5009241;28;20199;-60
2023/01/25 12:08:56;;;;;;;12.57;8.87;;;;;;;;;;5011416;28;20210;-60
2023/01/25 12:11:30;;;;;;;18.47;12.30;;;;;;;;;;5009480;28;20207;-60
2023/01/25 12:14:02;;;;;;;19.53;12.33;;;;;;;;;;5013998;28;20207;-58
2023/01/25 12:16:43;;;;;;;10.20;8.27;;;;;;;;;;5011939;28;20207;-59
2023/01/25 12:19:16;;;;;;;10.97;8.03;;;;;;;;;;5010010;28;20243;-60
2023/01/25 12:21:51;;;;;;;10.10;8.20;;;;;;;;;;5009772;28;20231;-60
2023/01/25 12:24:28;;;;;;;8.90;7.13;;;;;;;;;;5010178;28;20207;-58
2023/01/25 12:27:01;;;;;;;10.20;7.40;;;;;;;;;;5017123;28;20212;-61
2023/01/25 12:29:33;;;;;;;10.27;7.77;;;;;;;;;;5011046;28;20254;-59
2023/01/25 12:32:02;;;;;;;9.27;7.60;;;;;;;;;;5017211;28;20529;-60
2023/01/25 12:34:33;;;;;;;11.30;8.60;;;;;;;;;;5017312;28;20425;-60
2023/01/25 12:37:01;;;;;;;12.07;9.10;;;;;;;;;;5017051;28;20365;-58
2023/01/25 12:39:33;;;;;;;15.30;10.67;;;;;;;;;;5020448;28;20204;-59
2023/01/25 12:42:03;;;;;;;12.17;9.43;;;;;;;;;;5020200;28;20257;-59
2023/01/25 12:44:40;;;;;;;13.13;9.57;;;;;;;;;;5019113;28;20203;-59
2023/01/25 12:47:11;;;;;;;11.83;8.63;;;;;;;;;;5024752;28;20196;-60
2023/01/25 12:49:40;;;;;;;15.27;9.37;;;;;;;;;;5019133;28;20279;-58
2023/01/25 12:52:15;;;;;;;11.40;8.50;;;;;;;;;;5023342;28;20269;-59
2023/01/25 12:54:44;;;;;;;11.70;9.17;;;;;;;;;;5025791;28;20232;-57
2023/01/25 12:57:17;;;;;;;13.50;10.77;;;;;;;;;;5021871;28;20325;-58
2023/01/25 12:59:50;;;;;;;14.33;11.43;;;;;;;;;;5021763;28;20254;-57
2023/01/25 13:02:33;;;;;;;15.23;11.27;;;;;;;;;;5018400;28;20211;-59
2023/01/25 13:05:03;;;;;;;15.17;11.73;;;;;;;;;;5024874;28;20193;-58
2023/01/25 13:07:36;;;;;;;15.93;12.00;;;;;;;;;;5023220;28;20212;-60
2023/01/25 13:10:09;;;;;;;14.23;10.70;;;;;;;;;;5021062;28;20193;-58
2023/01/25 13:12:50;;;;;;;13.00;10.47;;;;;;;;;;5023573;28;20208;-59
2023/01/25 13:15:38;;;;;;;14.83;10.50;;;;;;;;;;5015310;28;20445;-56
2023/01/25 13:18:26;;;;;;;11.83;8.70;;;;;;;;;;5015166;28;20225;-56
2023/01/25 13:20:55;;;;;;;9.77;8.57;;;;;;;;;;5009774;28;20358;-56
2023/01/25 13:23:31;;;;;;;10.03;8.27;;;;;;;;;;5016627;28;20434;-59
2023/01/25 13:26:23;;;;;;;9.80;8.37;;;;;;;;;;5013653;28;20215;-60
2023/01/25 13:28:51;;;;;;;9.50;7.67;;;;;;;;;;5019139;28;20212;-59
2023/01/25 13:31:33;;;;;;;11.60;9.10;;;;;;;;;;5010564;28;20283;-59
2023/01/25 13:34:02;;;;;;;9.57;7.67;;;;;;;;;;5002542;28;20197;-59
2023/01/25 13:36:44;;;;;;;10.03;8.17;;;;;;;;;;5015769;28;20326;-57
2023/01/25 13:39:30;;;;;;;8.80;7.47;;;;;;;;;;5012616;28;20225;-57
2023/01/25 13:41:58;;;;;;;12.83;9.37;;;;;;;;;;5014824;28;20215;-59
2023/01/25 13:44:27;;;;;;;13.57;8.67;;;;;;;;;;5014123;28;20209;-60
2023/01/25 13:46:54;;;;;;;11.57;9.00;;;;;;;;;;5013596;28;20192;-58
2023/01/25 13:51:53;;;;;;;11.87;8.60;;;;;;;;;;5017869;28;20224;-59
2023/01/25 13:54:20;;;;;;;10.67;8.70;;;;;;;;;;5020509;28;20200;-59
2023/01/25 13:56:47;;;;;;;13.13;9.73;;;;;;;;;;5019282;28;20215;-60
2023/01/25 13:59:24;;;;;;;11.97;9.37;;;;;;;;;;5022701;28;20216;-59
2023/01/25 14:01:51;;;;;;;13.50;9.63;;;;;;;;;;5017574;28;20398;-57
2023/01/25 14:04:19;;;;;;;12.17;8.63;;;;;;;;;;5015376;28;20211;-59
2023/01/25 14:06:46;;;;;;;11.20;9.03;;;;;;;;;;5023290;28;20217;-59
2023/01/25 14:09:18;;;;;;;12.30;9.27;;;;;;;;;;5020729;28;20200;-58
2023/01/25 14:11:46;;;;;;;12.37;9.20;;;;;;;;;;5025079;28;20291;-57
2023/01/25 14:14:19;;;;;;;11.73;9.93;;;;;;;;;;5022442;28;20199;-60
2023/01/25 14:16:46;;;;;;;12.20;8.67;;;;;;;;;;5020249;28;20204;-56
2023/01/25 14:19:21;;;;;;;11.37;9.10;;;;;;;;;;5020456;28;20212;-59
2023/01/25 14:21:49;;;;;;;11.70;9.07;;;;;;;;;;5019653;28;20258;-60
2023/01/25 14:24:18;;;;;;;10.10;8.47;;;;;;;;;;5020446;28;20528;-60
2023/01/25 14:26:46;;;;;;;11.80;8.63;;;;;;;;;;5019099;28;20214;-60
2023/01/25 14:29:18;;;;;;;11.17;7.93;;;;;;;;;;5020315;28;20270;-60
2023/01/25 14:31:47;;;;;;;9.93;7.97;;;;;;;;;;5016969;28;20215;-60
2023/01/25 14:34:17;;;;;;;11.30;8.57;;;;;;;;;;5018558;28;20215;-56
2023/01/25 14:36:44;;;;;;;12.20;8.73;;;;;;;;;;5016223;28;20212;-58
2023/01/25 14:39:14;;;;;;;10.13;7.87;;;;;;;;;;5017137;28;20228;-60
2023/01/25 14:41:45;;;;;;;10.53;8.53;;;;;;;;;;5023488;28;20524;-57
2023/01/25 14:44:13;;;;;;;8.03;7.23;;;;;;;;;;5019589;28;20196;-59